Time;durP1;ratioP1;P1;durP2;ratioP2;P2;SDS_P1;SDS_P2;PMS_P1;PMS_P2;Temp;Humidity;BMP_temperature;BMP_pressure;BME280_temperature;BME280_humidity;BME280_pressure;Samples;Min_cycle;Max_cycle;Signal;HPM_P1;HPM_P2
2022/03/24 00:02:26;;;;;;;;;;;9.40;54.80;;;;;;2377327;56;20118;-76
2022/03/24 00:04:52;;;;;;;;;;;9.40;54.80;;;;;;2377843;56;20081;-76
2022/03/24 00:07:19;;;;;;;;;;;9.40;54.90;;;;;;2398113;52;20065;-76
2022/03/24 00:09:45;;;;;;;;;;;9.30;55.00;;;;;;2377697;56;20061;-76
2022/03/24 00:12:12;;;;;;;;;;;9.30;55.00;;;;;;2378098;56;20440;-76
2022/03/24 00:14:39;;;;;;;;;;;9.30;55.10;;;;;;2378269;56;20106;-76
2022/03/24 00:17:06;;;;;;;;;;;9.30;55.10;;;;;;2377287;56;20093;-77
2022/03/24 00:19:32;;;;;;;;;;;9.30;55.20;;;;;;2400068;52;20077;-76
2022/03/24 00:21:59;;;;;;;;;;;9.20;55.10;;;;;;2385189;52;20125;-74
2022/03/24 00:24:56;;;;;;;;;;;9.20;55.10;;;;;;2377426;56;20116;-76
2022/03/24 00:27:22;;;;;;;;;;;9.20;55.20;;;;;;2391810;52;20074;-76
2022/03/24 00:29:49;;;;;;;;;;;9.20;55.10;;;;;;2377702;56;20447;-76
2022/03/24 00:32:15;;;;;;;;;;;9.10;55.00;;;;;;2377065;56;20132;-76
2022/03/24 00:34:41;;;;;;;;;;;9.10;55.10;;;;;;2377840;56;20073;-76
2022/03/24 00:37:09;;;;;;;;;;;9.10;55.30;;;;;;2377517;56;20148;-76
2022/03/24 00:39:36;;;;;;;;;;;9.00;55.20;;;;;;2377702;56;20077;-76
2022/03/24 00:42:07;;;;;;;;;;;9.00;55.40;;;;;;2378108;56;20073;-76
2022/03/24 00:44:33;;;;;;;;;;;9.00;55.40;;;;;;2378120;56;20268;-75
2022/03/24 00:47:00;;;;;;;;;;;9.00;55.40;;;;;;2378198;56;20088;-76
2022/03/24 00:49:26;;;;;;;;;;;9.00;55.60;;;;;;2376787;56;20081;-76
2022/03/24 00:51:53;;;;;;;;;;;9.00;55.60;;;;;;2378027;56;20065;-75
2022/03/24 00:54:20;;;;;;;;;;;8.90;55.60;;;;;;2377968;56;20057;-75
2022/03/24 00:56:47;;;;;;;;;;;8.90;55.60;;;;;;2377966;56;20128;-76
2022/03/24 00:59:13;;;;;;;;;;;8.90;55.70;;;;;;2377836;56;20093;-76
2022/03/24 01:01:41;;;;;;;;;;;8.80;55.60;;;;;;2378153;56;20129;-76
2022/03/24 01:04:08;;;;;;;;;;;8.80;55.70;;;;;;2377906;56;20416;-75
2022/03/24 01:06:34;;;;;;;;;;;8.80;55.70;;;;;;2376449;56;20101;-75
2022/03/24 01:09:01;;;;;;;;;;;8.80;55.70;;;;;;2377336;56;20121;-76
2022/03/24 01:11:28;;;;;;;;;;;8.70;55.90;;;;;;2378070;56;20145;-76
2022/03/24 01:13:54;;;;;;;;;;;8.70;55.90;;;;;;2377948;56;20065;-76
2022/03/24 01:16:23;;;;;;;;;;;8.70;56.10;;;;;;2384026;52;20069;-75
2022/03/24 01:18:49;;;;;;;;;;;8.70;56.20;;;;;;2377829;56;20050;-76
2022/03/24 01:21:16;;;;;;;;;;;8.60;56.30;;;;;;2524721;52;20313;-76
2022/03/24 01:23:44;;;;;;;;;;;8.60;56.40;;;;;;2377470;56;20081;-75
2022/03/24 01:26:11;;;;;;;;;;;8.60;56.40;;;;;;2377786;56;20077;-75
2022/03/24 01:28:38;;;;;;;;;;;8.60;56.40;;;;;;2377716;56;20070;-75
2022/03/24 01:31:05;;;;;;;;;;;8.60;56.30;;;;;;2377895;56;20117;-76
2022/03/24 01:33:31;;;;;;;;;;;8.60;56.30;;;;;;2377745;56;20341;-75
2022/03/24 01:35:58;;;;;;;;;;;8.60;56.30;;;;;;2377765;56;20104;-76
2022/03/24 01:38:25;;;;;;;;;;;8.60;56.40;;;;;;2378098;56;20120;-75
2022/03/24 01:40:52;;;;;;;;;;;8.60;56.50;;;;;;2376992;56;20238;-76
2022/03/24 01:43:19;;;;;;;;;;;8.50;56.50;;;;;;2377861;56;20125;-76
2022/03/24 01:45:45;;;;;;;;;;;8.50;56.50;;;;;;2377974;56;20328;-75
2022/03/24 01:48:14;;;;;;;;;;;8.50;57.00;;;;;;2377801;56;20137;-76
2022/03/24 01:50:40;;;;;;;;;;;8.50;56.50;;;;;;2377630;56;20097;-76
2022/03/24 01:53:07;;;;;;;;;;;8.50;56.60;;;;;;2377847;56;20062;-75
2022/03/24 01:55:34;;;;;;;;;;;8.50;56.60;;;;;;2377220;56;20155;-76
2022/03/24 01:58:01;;;;;;;;;;;8.50;56.60;;;;;;2377955;56;20074;-76
2022/03/24 02:00:28;;;;;;;;;;;8.50;56.70;;;;;;2377204;56;20129;-75
2022/03/24 02:02:55;;;;;;;;;;;8.50;56.60;;;;;;2378081;56;20312;-76
2022/03/24 02:05:22;;;;;;;;;;;8.40;56.50;;;;;;2377894;56;20065;-75
2022/03/24 02:07:50;;;;;;;;;;;8.40;57.30;;;;;;2377957;56;20311;-76
2022/03/24 02:10:17;;;;;;;;;;;8.40;56.60;;;;;;2377331;56;20073;-76
2022/03/24 02:12:43;;;;;;;;;;;8.40;56.70;;;;;;2378020;56;20135;-76
2022/03/24 02:15:10;;;;;;;;;;;8.40;56.60;;;;;;2377738;56;20148;-75
2022/03/24 02:17:39;;;;;;;;;;;8.30;56.70;;;;;;2377940;56;21108;-76
2022/03/24 02:20:09;;;;;;;;;;;8.30;56.70;;;;;;2377569;56;20088;-75
2022/03/24 02:22:36;;;;;;;;;;;8.30;56.80;;;;;;2376632;56;20101;-76
2022/03/24 02:25:02;;;;;;;;;;;8.30;56.90;;;;;;2377937;56;20117;-76
2022/03/24 02:27:29;;;;;;;;;;;8.30;56.80;;;;;;2391812;52;20061;-75
2022/03/24 02:29:55;;;;;;;;;;;8.20;56.70;;;;;;2377758;56;20053;-75
2022/03/24 02:32:22;;;;;;;;;;;8.20;56.70;;;;;;2377926;56;20081;-75
2022/03/24 02:34:48;;;;;;;;;;;8.20;56.90;;;;;;2378026;56;20132;-76
2022/03/24 02:37:17;;;;;;;;;;;8.10;56.80;;;;;;2523350;52;20128;-75
2022/03/24 02:39:45;;;;;;;;;;;8.10;56.90;;;;;;2376098;56;20066;-75
2022/03/24 02:42:14;;;;;;;;;;;8.10;56.80;;;;;;2377981;56;20181;-75
2022/03/24 02:44:41;;;;;;;;;;;8.10;57.20;;;;;;2377507;56;20085;-75
2022/03/24 02:47:10;;;;;;;;;;;8.10;57.30;;;;;;2377760;56;20071;-75
2022/03/24 02:49:37;;;;;;;;;;;8.00;57.30;;;;;;2377763;56;20165;-75
2022/03/24 02:52:05;;;;;;;;;;;8.00;57.90;;;;;;2377885;56;20093;-75
2022/03/24 02:54:32;;;;;;;;;;;8.00;57.30;;;;;;2378113;54;20205;-75
2022/03/24 02:56:58;;;;;;;;;;;8.00;57.30;;;;;;2631855;52;20372;-75
2022/03/24 02:59:25;;;;;;;;;;;8.00;57.30;;;;;;2387590;52;20059;-75
2022/03/24 03:01:53;;;;;;;;;;;7.90;57.20;;;;;;2377658;56;20367;-75
2022/03/24 03:04:19;;;;;;;;;;;8.00;57.20;;;;;;2378123;56;20292;-75
2022/03/24 03:06:46;;;;;;;;;;;7.90;57.20;;;;;;2378041;56;20065;-75
2022/03/24 03:09:14;;;;;;;;;;;7.90;57.20;;;;;;2377521;56;20495;-75
2022/03/24 03:11:43;;;;;;;;;;;7.80;57.20;;;;;;2378161;56;20191;-75
2022/03/24 03:14:11;;;;;;;;;;;7.80;57.90;;;;;;2377935;56;20089;-75
2022/03/24 03:16:38;;;;;;;;;;;7.80;57.20;;;;;;2378324;56;20121;-75
2022/03/24 03:19:06;;;;;;;;;;;7.80;57.20;;;;;;2377240;56;20361;-75
2022/03/24 03:21:33;;;;;;;;;;;7.80;57.40;;;;;;2377808;56;20125;-75
2022/03/24 03:23:59;;;;;;;;;;;7.70;57.70;;;;;;2378320;56;20205;-75
2022/03/24 03:26:25;;;;;;;;;;;7.70;57.50;;;;;;2405463;52;20101;-75
2022/03/24 03:28:52;;;;;;;;;;;7.70;57.50;;;;;;2520833;52;20066;-75
2022/03/24 03:31:19;;;;;;;;;;;7.70;57.60;;;;;;2377903;56;20113;-75
2022/03/24 03:33:45;;;;;;;;;;;7.60;57.60;;;;;;2377899;56;20063;-75
2022/03/24 03:36:12;;;;;;;;;;;7.60;57.60;;;;;;2377536;56;20332;-75
2022/03/24 03:38:38;;;;;;;;;;;7.60;57.60;;;;;;2378047;56;20205;-75
2022/03/24 03:41:05;;;;;;;;;;;7.60;57.60;;;;;;2377112;56;20316;-75
2022/03/24 03:43:31;;;;;;;;;;;7.60;57.70;;;;;;2398138;52;20074;-75
2022/03/24 03:45:58;;;;;;;;;;;7.60;57.80;;;;;;2376825;56;20115;-75
2022/03/24 03:48:25;;;;;;;;;;;7.60;57.70;;;;;;2378169;56;20356;-75
2022/03/24 03:50:51;;;;;;;;;;;7.60;57.70;;;;;;2376802;56;20267;-75
2022/03/24 03:53:18;;;;;;;;;;;7.60;57.80;;;;;;2378076;56;20082;-75
2022/03/24 03:55:44;;;;;;;;;;;7.50;57.70;;;;;;2378231;56;20062;-75
2022/03/24 03:58:11;;;;;;;;;;;7.50;57.80;;;;;;2376605;56;20106;-74
2022/03/24 04:00:52;;;;;;;;;;;7.50;57.80;;;;;;2377808;56;20061;-75
2022/03/24 04:03:19;;;;;;;;;;;7.50;58.40;;;;;;2377542;56;20308;-75
2022/03/24 04:05:45;;;;;;;;;;;7.40;57.80;;;;;;2388555;52;20070;-75
2022/03/24 04:08:13;;;;;;;;;;;7.40;57.80;;;;;;2377326;56;20167;-75
2022/03/24 04:10:40;;;;;;;;;;;7.40;58.00;;;;;;2377463;56;20094;-75
2022/03/24 04:13:06;;;;;;;;;;;7.40;57.90;;;;;;2378369;56;20304;-75
2022/03/24 04:15:33;;;;;;;;;;;7.40;58.00;;;;;;2376907;56;20090;-75
2022/03/24 04:18:00;;;;;;;;;;;7.30;58.00;;;;;;2377719;56;20085;-75
2022/03/24 04:20:27;;;;;;;;;;;7.30;58.00;;;;;;2377870;56;20084;-75
2022/03/24 04:22:54;;;;;;;;;;;7.30;58.10;;;;;;2378070;56;20379;-75
2022/03/24 04:25:21;;;;;;;;;;;7.30;58.20;;;;;;2408444;55;20253;-77
2022/03/24 04:27:48;;;;;;;;;;;7.30;58.20;;;;;;2218514;61;20119;-77
2022/03/24 04:30:16;;;;;;;;;;;7.30;58.20;;;;;;2217414;61;20179;-77
2022/03/24 04:32:43;;;;;;;;;;;7.30;58.20;;;;;;2216860;61;20162;-77
2022/03/24 04:35:10;;;;;;;;;;;7.20;58.90;;;;;;2217552;61;20074;-77
2022/03/24 04:37:37;;;;;;;;;;;7.20;58.30;;;;;;2437369;57;20124;-77
2022/03/24 04:40:05;;;;;;;;;;;7.20;58.30;;;;;;2217491;61;20096;-77
2022/03/24 04:42:32;;;;;;;;;;;7.20;58.30;;;;;;2217690;61;20166;-77
2022/03/24 04:44:59;;;;;;;;;;;7.20;58.40;;;;;;2437037;57;20148;-77
2022/03/24 04:47:26;;;;;;;;;;;7.20;58.50;;;;;;2217682;61;20074;-77
2022/03/24 04:49:52;;;;;;;;;;;7.20;58.40;;;;;;2217275;61;20087;-77
2022/03/24 04:52:19;;;;;;;;;;;7.10;58.20;;;;;;2218157;61;20086;-77
2022/03/24 04:54:45;;;;;;;;;;;7.10;58.10;;;;;;2217901;61;20099;-77
2022/03/24 04:57:12;;;;;;;;;;;7.10;58.10;;;;;;2217672;61;20083;-77
2022/03/24 04:59:39;;;;;;;;;;;7.10;58.10;;;;;;2217696;61;20095;-77
2022/03/24 05:02:08;;;;;;;;;;;7.10;58.10;;;;;;2217994;61;20083;-77
2022/03/24 05:04:35;;;;;;;;;;;7.10;58.20;;;;;;2218211;61;20123;-76
2022/03/24 05:07:03;;;;;;;;;;;7.10;58.20;;;;;;2217033;61;20146;-77
2022/03/24 05:09:30;;;;;;;;;;;7.00;58.10;;;;;;2217102;61;20203;-77
2022/03/24 05:11:56;;;;;;;;;;;7.00;58.00;;;;;;2436920;57;20131;-77
2022/03/24 05:14:23;;;;;;;;;;;7.00;58.20;;;;;;2217567;61;20317;-76
2022/03/24 05:16:49;;;;;;;;;;;7.00;58.10;;;;;;2437203;57;20142;-76
2022/03/24 05:19:16;;;;;;;;;;;7.00;58.20;;;;;;2217314;61;20131;-77
2022/03/24 05:21:42;;;;;;;;;;;6.90;58.20;;;;;;2217931;61;20131;-76
2022/03/24 05:24:09;;;;;;;;;;;6.90;58.30;;;;;;2217100;61;20131;-77
2022/03/24 05:26:37;;;;;;;;;;;6.90;58.30;;;;;;2217085;61;20084;-77
2022/03/24 05:29:04;;;;;;;;;;;6.90;58.40;;;;;;2217412;61;20083;-76
2022/03/24 05:31:30;;;;;;;;;;;6.80;58.60;;;;;;2218086;61;20169;-76
2022/03/24 05:33:56;;;;;;;;;;;6.80;58.50;;;;;;2218063;61;20179;-76
2022/03/24 05:36:23;;;;;;;;;;;6.80;58.60;;;;;;2217801;61;20071;-76
2022/03/24 05:38:51;;;;;;;;;;;6.80;58.90;;;;;;2436828;57;20083;-76
2022/03/24 05:41:17;;;;;;;;;;;6.80;58.80;;;;;;2216929;61;20138;-76
2022/03/24 05:44:02;;;;;;;;;;;6.80;58.70;;;;;;2218360;61;20131;-77
2022/03/24 05:46:29;;;;;;;;;;;6.80;58.70;;;;;;2218029;61;20088;-76
2022/03/24 05:48:55;;;;;;;;;;;6.80;58.90;;;;;;2216043;61;20075;-76
2022/03/24 05:51:23;;;;;;;;;;;6.80;58.90;;;;;;2217842;61;20330;-76
2022/03/24 05:53:50;;;;;;;;;;;6.80;59.10;;;;;;2218221;61;20094;-76
2022/03/24 05:56:16;;;;;;;;;;;6.80;59.40;;;;;;2217435;61;20079;-76
2022/03/24 05:58:43;;;;;;;;;;;6.80;59.40;;;;;;2217887;61;20091;-76
2022/03/24 06:01:09;;;;;;;;;;;6.80;59.40;;;;;;2218340;61;20127;-76
2022/03/24 06:03:36;;;;;;;;;;;6.80;59.40;;;;;;2218364;61;20116;-76
2022/03/24 06:06:03;;;;;;;;;;;6.80;59.60;;;;;;2215641;61;20333;-76
2022/03/24 06:08:30;;;;;;;;;;;6.90;59.70;;;;;;2217592;61;20143;-77
2022/03/24 06:10:59;;;;;;;;;;;6.90;59.80;;;;;;2216640;61;20123;-75
2022/03/24 06:13:25;;;;;;;;;;;6.90;59.80;;;;;;2217836;61;20116;-77
2022/03/24 06:15:52;;;;;;;;;;;6.90;59.80;;;;;;2217755;61;20075;-76
2022/03/24 06:18:19;;;;;;;;;;;6.90;59.70;;;;;;2217708;61;20087;-76
2022/03/24 06:20:45;;;;;;;;;;;6.90;59.80;;;;;;2217830;61;20111;-77
2022/03/24 06:23:12;;;;;;;;;;;6.90;59.90;;;;;;2217867;61;20119;-76
2022/03/24 06:25:42;;;;;;;;;;;7.00;59.80;;;;;;2218123;61;20086;-76
2022/03/24 06:28:09;;;;;;;;;;;7.00;59.80;;;;;;2217867;61;20332;-76
2022/03/24 06:30:35;;;;;;;;;;;7.00;59.90;;;;;;2217879;61;20087;-77
2022/03/24 06:33:02;;;;;;;;;;;7.10;60.10;;;;;;2218118;61;20128;-76
2022/03/24 06:35:28;;;;;;;;;;;7.00;60.20;;;;;;2218245;61;20135;-76
2022/03/24 06:37:55;;;;;;;;;;;7.10;60.50;;;;;;2218108;61;20397;-76
2022/03/24 06:40:21;;;;;;;;;;;7.10;60.60;;;;;;2217902;61;20084;-76
2022/03/24 06:42:48;;;;;;;;;;;7.10;60.80;;;;;;2217661;61;20131;-77
2022/03/24 06:45:14;;;;;;;;;;;7.10;60.90;;;;;;2217899;61;20087;-76
2022/03/24 06:47:42;;;;;;;;;;;7.10;61.00;;;;;;2217682;61;20083;-76
2022/03/24 06:50:10;;;;;;;;;;;7.30;60.90;;;;;;2217854;61;20115;-76
2022/03/24 06:52:37;;;;;;;;;;;7.30;60.90;;;;;;2218122;61;20075;-77
2022/03/24 06:55:05;;;;;;;;;;;7.40;60.80;;;;;;2218138;61;20083;-76
2022/03/24 06:57:31;;;;;;;;;;;7.40;60.70;;;;;;2437413;57;20079;-76
2022/03/24 06:59:58;;;;;;;;;;;7.50;60.90;;;;;;2217852;61;20059;-77
2022/03/24 07:02:24;;;;;;;;;;;7.50;60.90;;;;;;2217920;61;20075;-77
2022/03/24 07:04:51;;;;;;;;;;;7.50;60.90;;;;;;2437393;57;20087;-77
2022/03/24 07:07:19;;;;;;;;;;;7.60;61.10;;;;;;2217797;61;20087;-77
2022/03/24 07:09:45;;;;;;;;;;;7.70;61.40;;;;;;2216401;61;20079;-76
2022/03/24 07:12:12;;;;;;;;;;;7.80;61.60;;;;;;2437711;57;20067;-77
2022/03/24 07:14:38;;;;;;;;;;;7.80;61.70;;;;;;2218008;61;20330;-77
2022/03/24 07:17:05;;;;;;;;;;;7.90;61.80;;;;;;2218284;61;20135;-76
2022/03/24 07:19:32;;;;;;;;;;;7.90;61.90;;;;;;2217874;61;20364;-76
2022/03/24 07:21:58;;;;;;;;;;;8.00;62.00;;;;;;2217545;61;20083;-77
2022/03/24 07:24:25;;;;;;;;;;;8.10;62.10;;;;;;2436495;57;20195;-76
2022/03/24 07:26:51;;;;;;;;;;;8.20;62.30;;;;;;2436158;57;20075;-76
2022/03/24 07:29:18;;;;;;;;;;;8.30;62.20;;;;;;2217614;61;20072;-76
2022/03/24 07:31:44;;;;;;;;;;;8.40;61.90;;;;;;2217896;61;20078;-76
2022/03/24 07:34:11;;;;;;;;;;;8.50;62.10;;;;;;2218194;61;20094;-76
2022/03/24 07:36:38;;;;;;;;;;;8.60;61.60;;;;;;2218344;61;20079;-76
2022/03/24 07:39:05;;;;;;;;;;;8.60;61.20;;;;;;2217119;61;20076;-76
2022/03/24 07:41:32;;;;;;;;;;;8.80;60.90;;;;;;2218239;61;20090;-76
2022/03/24 07:43:59;;;;;;;;;;;8.80;60.70;;;;;;2217734;61;20322;-76
2022/03/24 07:46:26;;;;;;;;;;;9.00;60.30;;;;;;2437610;57;20079;-76
2022/03/24 07:48:52;;;;;;;;;;;9.10;59.10;;;;;;2217849;61;20088;-76
2022/03/24 07:51:19;;;;;;;;;;;9.20;59.10;;;;;;2217924;61;20081;-76
2022/03/24 07:53:53;;;;;;;;;;;9.20;58.60;;;;;;2218037;61;20103;-76
2022/03/24 07:56:21;;;;;;;;;;;9.20;59.20;;;;;;2436791;57;20068;-76
2022/03/24 07:58:48;;;;;;;;;;;9.30;58.50;;;;;;2217457;61;20159;-76
2022/03/24 08:01:14;;;;;;;;;;;9.40;58.40;;;;;;2218115;61;20142;-76
2022/03/24 08:03:42;;;;;;;;;;;9.50;58.30;;;;;;2217742;61;20410;-76
2022/03/24 08:06:08;;;;;;;;;;;9.60;58.00;;;;;;2218243;61;20898;-76
2022/03/24 08:08:35;;;;;;;;;;;9.70;58.30;;;;;;2217984;61;20102;-76
2022/03/24 08:11:01;;;;;;;;;;;9.70;57.30;;;;;;2217872;61;20132;-76
2022/03/24 08:13:28;;;;;;;;;;;9.80;56.80;;;;;;2217659;61;20080;-77
2022/03/24 08:15:56;;;;;;;;;;;9.90;56.70;;;;;;2218071;61;20302;-76
2022/03/24 08:18:23;;;;;;;;;;;10.00;56.20;;;;;;2437581;57;20159;-76
2022/03/24 08:20:51;;;;;;;;;;;10.10;55.90;;;;;;2435965;57;20061;-76
2022/03/24 08:23:17;;;;;;;;;;;10.20;55.60;;;;;;2437318;57;20340;-76
2022/03/24 08:25:44;;;;;;;;;;;10.20;55.40;;;;;;2218085;61;20091;-76
2022/03/24 08:28:12;;;;;;;;;;;10.30;55.50;;;;;;2214218;61;20128;-76
2022/03/24 08:30:39;;;;;;;;;;;10.30;55.20;;;;;;2437103;57;20087;-76
2022/03/24 08:33:05;;;;;;;;;;;10.40;55.40;;;;;;2217581;61;20079;-76
2022/03/24 08:35:32;;;;;;;;;;;10.50;54.50;;;;;;2437685;57;20075;-76
2022/03/24 08:38:00;;;;;;;;;;;10.50;54.00;;;;;;2218075;61;20159;-77
2022/03/24 08:40:27;;;;;;;;;;;10.60;54.20;;;;;;2217587;61;20071;-76
2022/03/24 08:42:54;;;;;;;;;;;10.70;54.50;;;;;;2215031;61;20151;-77
2022/03/24 08:45:20;;;;;;;;;;;10.70;54.40;;;;;;2217403;61;20075;-76
2022/03/24 08:47:47;;;;;;;;;;;10.80;54.50;;;;;;2217280;61;20912;-76
2022/03/24 08:50:14;;;;;;;;;;;10.90;54.50;;;;;;2216975;61;20131;-76
2022/03/24 08:52:41;;;;;;;;;;;10.90;54.40;;;;;;2436621;57;20088;-76
2022/03/24 08:55:09;;;;;;;;;;;11.00;54.00;;;;;;2217557;61;20283;-76
2022/03/24 08:57:36;;;;;;;;;;;11.10;54.10;;;;;;2217570;61;20075;-76
2022/03/24 09:00:07;;;;;;;;;;;11.10;53.90;;;;;;2216364;61;20150;-75
2022/03/24 09:02:35;;;;;;;;;;;11.20;53.70;;;;;;2434457;57;20107;-76
2022/03/24 09:05:02;;;;;;;;;;;11.20;53.80;;;;;;2215379;61;20075;-76
2022/03/24 09:07:28;;;;;;;;;;;11.30;53.90;;;;;;2216742;61;20139;-76
2022/03/24 09:09:55;;;;;;;;;;;11.30;53.60;;;;;;2215452;61;20310;-76
2022/03/24 09:12:21;;;;;;;;;;;11.40;53.40;;;;;;2217605;61;20147;-75
2022/03/24 09:14:47;;;;;;;;;;;11.40;53.30;;;;;;2217151;61;20135;-76
2022/03/24 09:17:14;;;;;;;;;;;11.50;53.30;;;;;;2216708;61;20317;-76
2022/03/24 09:19:40;;;;;;;;;;;11.60;53.30;;;;;;2217379;61;20119;-75
2022/03/24 09:22:07;;;;;;;;;;;11.60;53.30;;;;;;2217065;61;20103;-76
2022/03/24 09:24:34;;;;;;;;;;;11.70;53.10;;;;;;2217337;61;20374;-75
2022/03/24 09:27:02;;;;;;;;;;;11.80;53.00;;;;;;2217109;61;20138;-75
2022/03/24 09:29:29;;;;;;;;;;;11.80;53.20;;;;;;2435743;57;20087;-76
2022/03/24 09:31:55;;;;;;;;;;;11.90;53.00;;;;;;2436736;57;20281;-75
2022/03/24 09:34:22;;;;;;;;;;;11.90;52.90;;;;;;2217623;61;20087;-75
2022/03/24 09:36:48;;;;;;;;;;;12.00;52.40;;;;;;2216683;61;20310;-76
2022/03/24 09:39:15;;;;;;;;;;;12.00;52.40;;;;;;2217242;61;20083;-76
2022/03/24 09:41:46;;;;;;;;;;;12.10;52.40;;;;;;2436588;57;20342;-76
2022/03/24 09:44:12;;;;;;;;;;;12.20;52.30;;;;;;2436427;57;20147;-77
2022/03/24 09:46:39;;;;;;;;;;;12.30;52.40;;;;;;2217984;61;20083;-76
2022/03/24 09:49:08;;;;;;;;;;;12.30;52.10;;;;;;2436682;57;20071;-76
2022/03/24 09:51:35;;;;;;;;;;;12.40;52.20;;;;;;2218171;61;20091;-76
2022/03/24 09:54:01;;;;;;;;;;;12.40;52.10;;;;;;2217848;61;20075;-76
2022/03/24 09:56:29;;;;;;;;;;;12.50;52.00;;;;;;2216682;61;20075;-76
2022/03/24 09:58:55;;;;;;;;;;;12.50;52.10;;;;;;2217930;61;20250;-77
2022/03/24 10:01:21;;;;;;;;;;;12.60;51.80;;;;;;2217373;61;20075;-76
2022/03/24 10:04:07;;;;;;;;;;;12.70;52.00;;;;;;2218121;61;20151;-76
2022/03/24 10:06:35;;;;;;;;;;;12.70;51.90;;;;;;2218123;61;20146;-76
2022/03/24 10:09:01;;;;;;;;;;;12.80;51.70;;;;;;2213990;61;20188;-77
2022/03/24 10:11:28;;;;;;;;;;;12.90;51.80;;;;;;2436898;57;20120;-76
2022/03/24 10:13:55;;;;;;;;;;;12.90;51.50;;;;;;2217662;61;20333;-76
2022/03/24 10:16:40;;;;;;;;;;;12.90;51.30;;;;;;2218267;61;20135;-76
2022/03/24 10:19:07;;;;;;;;;;;13.00;51.40;;;;;;2436578;57;20079;-76
2022/03/24 10:21:35;;;;;;;;;;;13.10;51.10;;;;;;2218206;61;20068;-76
2022/03/24 10:24:07;;;;;;;;;;;13.10;51.10;;;;;;2217709;61;20217;-76
2022/03/24 10:26:45;;;;;;;;;;;13.20;51.20;;;;;;2476369;54;20235;-75
2022/03/24 10:29:12;;;;;;;;;;;13.20;51.10;;;;;;2272989;59;20088;-76
2022/03/24 10:31:41;;;;;;;;;;;13.30;50.80;;;;;;2272344;59;20108;-75
2022/03/24 10:34:08;;;;;;;;;;;13.40;50.60;;;;;;2272749;59;20143;-76
2022/03/24 10:36:35;;;;;;;;;;;13.50;50.50;;;;;;2275121;59;20084;-76
2022/03/24 10:39:05;;;;;;;;;;;13.50;50.40;;;;;;2505487;55;20087;-76
2022/03/24 10:41:33;;;;;;;;;;;13.60;50.10;;;;;;2275357;59;20084;-76
2022/03/24 10:44:00;;;;;;;;;;;13.70;50.20;;;;;;2504673;55;20203;-76
2022/03/24 10:46:28;;;;;;;;;;;13.80;50.30;;;;;;2503628;55;20071;-76
2022/03/24 10:48:54;;;;;;;;;;;13.90;50.10;;;;;;2272835;59;20092;-75
2022/03/24 10:51:21;;;;;;;;;;;13.90;49.80;;;;;;2505071;54;20131;-76
2022/03/24 10:53:48;;;;;;;;;;;14.00;49.30;;;;;;2507373;55;20079;-76
2022/03/24 10:56:17;;;;;;;;;;;14.10;49.40;;;;;;2507337;55;20064;-76
2022/03/24 10:58:46;;;;;;;;;;;14.20;49.50;;;;;;2275716;59;20084;-76
2022/03/24 11:01:14;;;;;;;;;;;14.20;49.50;;;;;;2275637;59;20068;-76
2022/03/24 11:03:41;;;;;;;;;;;14.30;49.60;;;;;;2273817;59;20056;-76
2022/03/24 11:06:08;;;;;;;;;;;14.40;49.30;;;;;;2507120;54;20068;-76
2022/03/24 11:08:35;;;;;;;;;;;14.50;48.90;;;;;;2507369;55;20318;-77
2022/03/24 11:11:05;;;;;;;;;;;14.50;48.80;;;;;;2507428;55;20092;-76
2022/03/24 11:13:40;;;;;;;;;;;14.60;48.80;;;;;;2276272;59;20080;-76
2022/03/24 11:16:08;;;;;;;;;;;14.70;48.80;;;;;;2507471;55;20080;-75
2022/03/24 11:18:34;;;;;;;;;;;14.80;48.90;;;;;;2273797;59;20096;-75
2022/03/24 11:21:03;;;;;;;;;;;14.90;48.70;;;;;;2506645;54;20116;-75
2022/03/24 11:23:35;;;;;;;;;;;15.00;47.90;;;;;;2276161;59;20116;-75
2022/03/24 11:26:02;;;;;;;;;;;15.10;48.10;;;;;;2276159;59;20068;-75
2022/03/24 11:28:29;;;;;;;;;;;15.10;47.30;;;;;;2276172;59;20076;-76
2022/03/24 11:30:56;;;;;;;;;;;15.30;47.40;;;;;;2275901;59;20052;-76
2022/03/24 11:33:23;;;;;;;;;;;15.30;47.60;;;;;;2276000;59;20072;-76
2022/03/24 11:35:50;;;;;;;;;;;15.40;47.70;;;;;;2274114;59;20088;-75
2022/03/24 11:38:16;;;;;;;;;;;15.50;46.60;;;;;;2506624;55;20307;-76
2022/03/24 11:40:43;;;;;;;;;;;15.60;46.70;;;;;;2275637;59;20071;-76
2022/03/24 11:43:10;;;;;;;;;;;15.60;46.70;;;;;;2507315;54;20072;-76
2022/03/24 11:45:40;;;;;;;;;;;15.70;46.70;;;;;;2275724;59;20064;-76
2022/03/24 11:48:08;;;;;;;;;;;15.80;46.80;;;;;;2275301;59;20151;-76
2022/03/24 11:50:35;;;;;;;;;;;15.90;46.80;;;;;;2275182;59;20135;-76
2022/03/24 11:53:08;;;;;;;;;;;16.00;46.00;;;;;;2275661;59;20080;-76
2022/03/24 11:55:37;;;;;;;;;;;16.10;45.50;;;;;;2275216;59;20128;-76
2022/03/24 11:58:04;;;;;;;;;;;16.20;45.80;;;;;;2275959;59;20056;-76
2022/03/24 12:00:37;;;;;;;;;;;16.30;45.70;;;;;;2507101;55;20068;-75
2022/03/24 12:03:37;;;;;;;;;;;16.40;46.40;;;;;;2275444;59;20076;-76
2022/03/24 12:06:05;;;;;;;;;;;16.50;45.30;;;;;;2275850;59;20135;-76
2022/03/24 12:08:42;;;;;;;;;;;16.50;44.50;;;;;;2275833;59;20083;-76
2022/03/24 12:11:28;;;;;;;;;;;16.50;44.10;;;;;;2275778;59;20076;-76
2022/03/24 12:13:55;;;;;;;;;;;16.60;44.10;;;;;;2507314;55;20056;-77
2022/03/24 12:16:24;;;;;;;;;;;16.60;44.30;;;;;;2506742;55;20068;-76
2022/03/24 12:18:50;;;;;;;;;;;16.70;44.30;;;;;;2275482;59;20080;-76
2022/03/24 12:21:19;;;;;;;;;;;16.80;44.40;;;;;;2507346;54;20330;-76
2022/03/24 12:24:04;;;;;;;;;;;16.90;44.40;;;;;;2507409;54;20061;-76
2022/03/24 12:26:31;;;;;;;;;;;16.90;44.20;;;;;;2275811;59;20132;-75
2022/03/24 12:29:16;;;;;;;;;;;17.00;44.20;;;;;;2506907;55;20060;-75
2022/03/24 12:34:46;;;;;;;;;;;17.10;43.30;;;;;;2359601;57;20363;-75
2022/03/24 12:37:31;;;;;;;;;;;17.10;43.20;;;;;;2632881;51;20316;-75
2022/03/24 12:40:10;;;;;;;;;;;17.20;43.00;;;;;;2378457;56;20062;-75
2022/03/24 12:42:40;;;;;;;;;;;17.20;43.10;;;;;;2398156;56;20064;-75
2022/03/24 12:45:07;;;;;;;;;;;17.30;43.10;;;;;;2407197;56;20084;-75
2022/03/24 12:47:35;;;;;;;;;;;17.30;43.20;;;;;;2667360;52;20080;-75
2022/03/24 12:50:08;;;;;;;;;;;17.40;43.00;;;;;;2666903;52;20139;-75
2022/03/24 12:52:50;;;;;;;;;;;17.50;42.50;;;;;;2405630;56;20144;-74
2022/03/24 12:55:20;;;;;;;;;;;17.50;42.10;;;;;;2667506;52;20312;-77
2022/03/24 12:57:54;;;;;;;;;;;17.60;41.90;;;;;;2406739;56;20060;-76
2022/03/24 13:00:22;;;;;;;;;;;17.60;41.70;;;;;;2666080;52;20128;-77
2022/03/24 13:02:48;;;;;;;;;;;17.60;41.70;;;;;;2666124;52;20068;-77
2022/03/24 13:05:20;;;;;;;;;;;17.70;41.00;;;;;;2665766;52;20135;-77
2022/03/24 13:07:49;;;;;;;;;;;17.80;41.50;;;;;;2666905;52;20147;-76
2022/03/24 13:10:15;;;;;;;;;;;17.80;41.60;;;;;;2666133;52;20069;-76
2022/03/24 13:12:42;;;;;;;;;;;17.80;41.20;;;;;;2406536;56;20127;-76
2022/03/24 13:15:16;;;;;;;;;;;17.90;41.40;;;;;;2406683;56;20088;-76
2022/03/24 13:17:43;;;;;;;;;;;17.90;41.20;;;;;;2407006;56;20052;-76
2022/03/24 13:20:10;;;;;;;;;;;17.90;40.60;;;;;;2406090;56;20112;-76
2022/03/24 13:22:36;;;;;;;;;;;17.90;41.80;;;;;;2406935;56;20076;-76
2022/03/24 13:25:03;;;;;;;;;;;17.90;41.90;;;;;;2666745;52;20041;-76
2022/03/24 13:27:31;;;;;;;;;;;18.00;41.40;;;;;;2406704;56;20077;-75
2022/03/24 13:29:57;;;;;;;;;;;18.00;40.70;;;;;;2406037;56;20052;-77
2022/03/24 13:32:25;;;;;;;;;;;17.90;41.00;;;;;;2667357;52;20093;-76
2022/03/24 13:34:52;;;;;;;;;;;17.90;40.90;;;;;;2406502;56;20090;-77
2022/03/24 13:37:19;;;;;;;;;;;17.80;41.00;;;;;;2666701;52;20065;-76
2022/03/24 13:39:47;;;;;;;;;;;17.80;41.40;;;;;;2405840;56;20080;-76
2022/03/24 13:42:15;;;;;;;;;;;17.80;41.60;;;;;;2666724;52;20061;-76
2022/03/24 13:44:44;;;;;;;;;;;17.80;41.50;;;;;;2666753;52;20511;-76
2022/03/24 13:47:11;;;;;;;;;;;17.70;41.20;;;;;;2406073;56;20072;-75
2022/03/24 13:49:38;;;;;;;;;;;17.70;41.40;;;;;;2405770;56;20076;-76
2022/03/24 13:52:05;;;;;;;;;;;17.60;41.00;;;;;;2405796;56;20052;-76
2022/03/24 13:54:41;;;;;;;;;;;17.60;41.00;;;;;;2405728;56;20349;-76
2022/03/24 13:57:21;;;;;;;;;;;17.50;41.10;;;;;;2404102;56;20149;-76
2022/03/24 13:59:54;;;;;;;;;;;17.50;41.20;;;;;;2405703;56;20060;-76
2022/03/24 14:02:24;;;;;;;;;;;17.40;41.50;;;;;;2666085;52;20056;-75
2022/03/24 14:05:05;;;;;;;;;;;17.40;41.50;;;;;;2666243;52;20076;-76
2022/03/24 14:07:32;;;;;;;;;;;17.40;42.00;;;;;;2665886;52;20112;-75
2022/03/24 14:09:58;;;;;;;;;;;17.40;41.60;;;;;;2405656;56;20056;-75
2022/03/24 14:12:27;;;;;;;;;;;17.50;42.10;;;;;;2665177;52;20131;-75
2022/03/24 14:14:54;;;;;;;;;;;17.60;42.10;;;;;;2662438;52;20088;-75
2022/03/24 14:17:24;;;;;;;;;;;17.60;41.50;;;;;;2405771;56;20116;-76
2022/03/24 14:19:54;;;;;;;;;;;17.60;41.30;;;;;;2404445;56;20068;-75
2022/03/24 14:22:24;;;;;;;;;;;17.70;41.40;;;;;;2405142;56;20097;-76
2022/03/24 14:24:53;;;;;;;;;;;17.80;40.60;;;;;;2405596;56;20116;-75
2022/03/24 14:27:20;;;;;;;;;;;17.80;40.80;;;;;;2667256;52;20080;-77
2022/03/24 14:30:02;;;;;;;;;;;17.80;40.50;;;;;;2406081;56;20083;-78
2022/03/24 14:32:28;;;;;;;;;;;17.90;40.50;;;;;;2665224;52;20371;-76